Time;durP1;ratioP1;P1;durP2;ratioP2;P2;SDS_P1;SDS_P2;PMS_P1;PMS_P2;Temp;Humidity;BMP_temperature;BMP_pressure;BME280_temperature;BME280_humidity;BME280_pressure;Samples;Min_cycle;Max_cycle;Signal;HPM_P1;HPM_P2
2022/09/30 00:01:09;;;;;;;5.60;2.70;;;5.00;99.90;;;;;;5095386;28;20174;-77
2022/09/30 00:03:38;;;;;;;5.00;3.43;;;5.00;99.90;;;;;;5095213;28;20493;-77
2022/09/30 00:06:06;;;;;;;5.73;2.67;;;5.00;99.90;;;;;;5093681;28;20178;-77
2022/09/30 00:08:31;;;;;;;4.30;2.67;;;4.90;99.90;;;;;;5094845;28;20199;-77
2022/09/30 00:11:07;;;;;;;5.43;2.80;;;4.90;99.90;;;;;;5093953;28;20735;-77
2022/09/30 00:13:35;;;;;;;3.90;3.00;;;4.90;99.90;;;;;;5095363;28;20196;-77
2022/09/30 00:16:01;;;;;;;4.30;2.83;;;4.90;99.90;;;;;;5094951;28;20170;-77
2022/09/30 00:18:27;;;;;;;5.43;2.47;;;4.80;99.90;;;;;;5094578;28;20236;-77
2022/09/30 00:20:53;;;;;;;8.07;3.10;;;4.80;99.90;;;;;;5094881;28;20530;-77
2022/09/30 00:23:22;;;;;;;5.07;2.77;;;4.80;99.90;;;;;;5094646;28;20174;-77
2022/09/30 00:25:49;;;;;;;4.47;3.00;;;4.80;99.90;;;;;;5093351;28;20655;-77
2022/09/30 00:28:15;;;;;;;4.60;2.90;;;4.80;99.90;;;;;;5093245;28;20236;-77
2022/09/30 00:30:41;;;;;;;6.37;3.20;;;4.80;99.90;;;;;;5093267;28;20171;-76
2022/09/30 00:33:07;;;;;;;5.03;2.87;;;4.80;99.90;;;;;;5093220;28;20170;-76
2022/09/30 00:35:33;;;;;;;3.13;2.40;;;4.70;99.90;;;;;;5093109;28;20208;-76
2022/09/30 00:37:59;;;;;;;7.87;2.60;;;4.70;99.90;;;;;;5093104;28;20235;-76
2022/09/30 00:40:25;;;;;;;12.80;2.83;;;4.70;99.90;;;;;;5094367;28;20171;-77
2022/09/30 00:42:51;;;;;;;8.27;2.77;;;4.70;99.90;;;;;;5094876;28;20257;-78
2022/09/30 00:45:17;;;;;;;4.63;2.70;;;4.60;99.90;;;;;;5097275;28;20378;-76
2022/09/30 00:47:51;;;;;;;4.13;2.70;;;4.60;99.90;;;;;;5092797;28;20198;-76
2022/09/30 00:50:31;;;;;;;4.33;2.77;;;4.50;99.90;;;;;;5094080;28;20170;-76
2022/09/30 00:53:08;;;;;;;3.43;2.20;;;4.50;99.90;;;;;;5094311;28;20159;-76
2022/09/30 00:55:43;;;;;;;4.17;2.73;;;4.50;99.90;;;;;;5094421;28;20524;-76
2022/09/30 00:58:14;;;;;;;11.03;3.20;;;4.50;99.90;;;;;;5093919;28;20240;-76
2022/09/30 01:00:40;;;;;;;10.50;3.27;;;4.50;99.90;;;;;;5094316;28;20208;-76
2022/09/30 01:03:06;;;;;;;4.07;2.87;;;4.50;99.90;;;;;;5093816;28;20179;-76
2022/09/30 01:05:33;;;;;;;5.03;3.07;;;4.50;99.90;;;;;;5092557;28;20182;-76
2022/09/30 01:08:02;;;;;;;8.67;2.90;;;4.50;99.90;;;;;;5093718;28;20644;-75
2022/09/30 01:10:28;;;;;;;4.17;2.60;;;4.50;99.90;;;;;;5092492;28;20181;-76
2022/09/30 01:12:54;;;;;;;9.10;3.40;;;4.40;99.90;;;;;;5093697;28;20162;-76
2022/09/30 01:15:26;;;;;;;9.87;3.40;;;4.40;99.90;;;;;;5093620;28;20211;-76
2022/09/30 01:18:10;;;;;;;5.83;2.90;;;4.40;99.90;;;;;;5093731;28;20237;-76
2022/09/30 01:21:16;;;;;;;4.87;3.10;;;4.40;99.90;;;;;;5092309;28;20173;-76
2022/09/30 01:24:06;;;;;;;6.37;2.57;;;4.30;99.90;;;;;;5092126;28;20170;-76
2022/09/30 01:26:43;;;;;;;3.57;2.60;;;4.40;99.90;;;;;;5093746;28;20170;-76
2022/09/30 01:29:08;;;;;;;5.47;2.40;;;4.40;99.90;;;;;;5093316;28;20621;-77
2022/09/30 01:31:49;;;;;;;4.90;2.80;;;4.30;99.90;;;;;;5092230;28;20166;-77
2022/09/30 01:34:36;;;;;;;5.43;2.63;;;4.30;99.90;;;;;;5092193;28;20162;-77
2022/09/30 01:37:20;;;;;;;3.93;2.70;;;4.30;99.90;;;;;;5093425;28;20558;-77
2022/09/30 01:40:07;;;;;;;3.87;2.63;;;4.30;99.90;;;;;;5092717;28;20275;-77
2022/09/30 01:42:37;;;;;;;6.77;2.73;;;4.30;99.90;;;;;;5093077;28;20174;-76
2022/09/30 01:45:12;;;;;;;6.33;2.30;;;4.20;99.90;;;;;;5093034;28;20173;-77
2022/09/30 01:47:52;;;;;;;4.90;2.97;;;4.30;99.90;;;;;;5093092;28;20249;-77
2022/09/30 01:51:07;;;;;;;7.40;2.73;;;4.20;99.90;;;;;;5092547;28;20287;-77
2022/09/30 01:53:47;;;;;;;3.83;2.40;;;4.20;99.90;;;;;;5091934;28;20185;-77
2022/09/30 01:56:17;;;;;;;4.70;2.90;;;4.20;99.90;;;;;;5091949;28;20177;-77
2022/09/30 01:58:59;;;;;;;6.30;2.70;;;4.20;99.90;;;;;;5092004;28;20736;-77
2022/09/30 02:01:59;;;;;;;7.50;3.03;;;4.20;99.90;;;;;;5093021;28;20621;-77
2022/09/30 02:04:31;;;;;;;7.13;3.07;;;4.20;99.90;;;;;;5080686;28;20178;-77
2022/09/30 02:07:03;;;;;;;7.83;2.80;;;4.20;99.90;;;;;;5092928;28;20158;-77
2022/09/30 02:09:34;;;;;;;4.30;2.80;;;4.20;99.90;;;;;;5092725;28;20202;-77
2022/09/30 02:12:05;;;;;;;6.23;3.73;;;4.20;99.90;;;;;;5093137;28;20158;-77
2022/09/30 02:14:44;;;;;;;5.63;3.40;;;4.20;99.90;;;;;;5091852;28;20166;-77
2022/09/30 02:17:22;;;;;;;5.93;3.17;;;4.10;99.90;;;;;;5093252;28;20151;-77
2022/09/30 02:19:58;;;;;;;5.80;3.53;;;4.10;99.90;;;;;;5092011;28;20284;-77
2022/09/30 02:22:49;;;;;;;4.40;3.23;;;4.10;99.90;;;;;;5092893;28;20165;-77
2022/09/30 02:25:21;;;;;;;4.40;2.97;;;4.00;99.90;;;;;;5091759;28;20177;-77
2022/09/30 02:27:52;;;;;;;8.43;3.33;;;3.90;99.90;;;;;;5091383;28;20201;-77
2022/09/30 02:30:18;;;;;;;7.13;3.27;;;3.90;99.90;;;;;;5091451;28;20200;-78
2022/09/30 02:32:50;;;;;;;5.23;3.17;;;3.90;99.90;;;;;;5092819;28;20531;-77
2022/09/30 02:35:18;;;;;;;5.77;3.50;;;3.90;99.90;;;;;;5091364;28;20183;-77
2022/09/30 02:37:49;;;;;;;6.60;3.53;;;3.90;99.90;;;;;;5091290;28;20174;-77
2022/09/30 02:40:29;;;;;;;6.30;3.27;;;3.90;99.90;;;;;;5092746;28;20167;-77
2022/09/30 02:42:55;;;;;;;5.30;3.20;;;3.80;99.90;;;;;;5091646;28;20170;-77
2022/09/30 02:45:22;;;;;;;7.10;3.10;;;3.80;99.90;;;;;;5092617;28;20174;-78
2022/09/30 02:48:03;;;;;;;7.47;3.80;;;3.80;99.90;;;;;;5091811;28;20187;-77
2022/09/30 02:50:54;;;;;;;4.40;3.53;;;3.80;99.90;;;;;;5091353;28;20260;-77
2022/09/30 02:53:39;;;;;;;5.50;3.77;;;3.80;99.90;;;;;;5084185;28;20178;-77
2022/09/30 02:56:18;;;;;;;4.83;3.13;;;3.70;99.90;;;;;;5093068;28;20212;-77
2022/09/30 02:58:44;;;;;;;6.70;3.67;;;3.70;99.90;;;;;;5091703;28;20602;-76
2022/09/30 03:01:12;;;;;;;5.03;3.27;;;3.70;99.90;;;;;;5092503;28;20252;-76
2022/09/30 03:03:57;;;;;;;7.53;3.53;;;3.70;99.90;;;;;;5095123;28;20264;-76
2022/09/30 03:06:23;;;;;;;6.50;3.50;;;3.70;99.90;;;;;;5096286;28;20162;-76
2022/09/30 03:08:51;;;;;;;4.67;3.13;;;3.70;99.90;;;;;;5096006;28;20205;-76
2022/09/30 03:11:20;;;;;;;5.10;3.40;;;3.70;99.90;;;;;;5096103;28;20588;-76
2022/09/30 03:14:04;;;;;;;3.93;2.93;;;3.50;99.90;;;;;;5094852;28;20174;-76
2022/09/30 03:17:07;;;;;;;4.20;3.37;;;3.70;99.90;;;;;;5096481;28;20162;-76
2022/09/30 03:19:58;;;;;;;4.90;3.20;;;3.70;99.90;;;;;;5095017;28;20190;-76
2022/09/30 03:22:41;;;;;;;5.27;3.53;;;3.70;99.90;;;;;;5096190;28;20161;-76
2022/09/30 03:25:12;;;;;;;6.10;3.60;;;3.70;99.90;;;;;;5094917;28;20170;-76
2022/09/30 03:28:02;;;;;;;4.73;3.37;;;3.70;99.90;;;;;;5094446;28;20674;-76
2022/09/30 03:30:31;;;;;;;7.57;3.40;;;3.60;99.90;;;;;;5096074;28;20211;-76
2022/09/30 03:33:11;;;;;;;6.73;2.90;;;3.60;99.90;;;;;;5094433;28;20671;-77
2022/09/30 03:35:46;;;;;;;4.90;3.50;;;3.60;99.90;;;;;;5094587;28;20269;-76
2022/09/30 03:38:27;;;;;;;6.67;3.27;;;3.60;99.90;;;;;;5095907;28;20192;-76
2022/09/30 03:41:05;;;;;;;6.93;3.80;;;3.60;99.90;;;;;;5094569;28;20167;-76
2022/09/30 03:43:40;;;;;;;6.33;3.47;;;3.60;99.90;;;;;;5095672;28;20186;-76
2022/09/30 03:46:28;;;;;;;3.83;3.13;;;3.60;99.90;;;;;;5095518;28;20174;-76
2022/09/30 03:48:58;;;;;;;7.23;3.53;;;3.60;99.90;;;;;;5094180;28;20317;-76
2022/09/30 03:51:24;;;;;;;5.60;3.13;;;3.60;99.90;;;;;;5095545;28;20178;-76
2022/09/30 03:53:52;;;;;;;7.50;3.23;;;3.70;99.90;;;;;;5095425;28;20170;-76
2022/09/30 03:56:28;;;;;;;4.33;3.07;;;3.70;99.90;;;;;;5094158;28;20265;-76
2022/09/30 03:58:55;;;;;;;4.27;3.43;;;3.70;99.90;;;;;;5118813;22;20223;-76
2022/09/30 04:01:22;;;;;;;5.60;3.50;;;3.70;99.90;;;;;;5037371;28;20185;-75
2022/09/30 04:03:51;;;;;;;7.07;3.27;;;3.70;99.90;;;;;;5037644;28;20177;-75
2022/09/30 04:06:19;;;;;;;7.20;2.97;;;3.70;99.90;;;;;;5039075;28;20681;-75
2022/09/30 04:08:44;;;;;;;5.03;3.87;;;3.60;99.90;;;;;;5037427;28;20295;-76
2022/09/30 04:11:11;;;;;;;4.10;3.33;;;3.60;99.90;;;;;;5037471;28;20703;-75
2022/09/30 04:13:37;;;;;;;5.13;3.50;;;3.60;99.90;;;;;;5036733;28;20176;-75
2022/09/30 04:16:04;;;;;;;5.80;3.63;;;3.60;99.90;;;;;;5037875;28;20648;-75
2022/09/30 04:18:30;;;;;;;6.37;3.40;;;3.60;99.90;;;;;;5038657;28;20180;-76
2022/09/30 04:20:56;;;;;;;5.37;3.97;;;3.60;99.90;;;;;;5039382;28;20515;-75
2022/09/30 04:23:21;;;;;;;10.93;3.93;;;3.60;99.90;;;;;;5038615;28;20176;-75
2022/09/30 04:25:54;;;;;;;4.40;3.30;;;3.70;99.90;;;;;;5038191;28;20186;-75
2022/09/30 04:28:21;;;;;;;4.13;3.27;;;3.70;99.90;;;;;;5040480;28;20259;-75
2022/09/30 04:30:46;;;;;;;4.43;3.10;;;3.70;99.90;;;;;;5038342;28;20689;-76
2022/09/30 04:33:12;;;;;;;6.13;3.20;;;3.60;99.90;;;;;;5038815;28;20184;-76
2022/09/30 04:35:38;;;;;;;6.17;3.30;;;3.60;99.90;;;;;;5039158;28;20180;-75
2022/09/30 04:38:06;;;;;;;4.97;3.67;;;3.60;99.90;;;;;;5037730;28;20180;-75
2022/09/30 04:40:35;;;;;;;10.27;3.57;;;3.70;99.90;;;;;;5038845;28;20218;-76
2022/09/30 04:43:00;;;;;;;7.90;3.90;;;3.60;99.90;;;;;;5037205;28;20181;-76
2022/09/30 04:45:26;;;;;;;7.07;3.70;;;3.60;99.90;;;;;;5036983;28;20180;-76
2022/09/30 04:47:51;;;;;;;10.40;4.57;;;3.50;99.90;;;;;;5037208;28;20678;-76
2022/09/30 04:50:17;;;;;;;7.90;3.73;;;3.50;99.90;;;;;;5036722;28;20246;-77
2022/09/30 04:52:43;;;;;;;6.60;3.93;;;3.50;99.90;;;;;;5035840;28;20198;-75
2022/09/30 04:55:10;;;;;;;8.50;4.47;;;3.50;99.90;;;;;;5035750;28;20635;-76
2022/09/30 04:57:35;;;;;;;7.33;4.73;;;3.50;99.90;;;;;;5037032;28;20177;-75
2022/09/30 05:00:01;;;;;;;9.50;4.43;;;3.50;99.90;;;;;;5035328;28;20231;-75
2022/09/30 05:02:27;;;;;;;7.00;4.30;;;3.50;99.90;;;;;;5037126;28;20172;-75
2022/09/30 05:04:54;;;;;;;6.33;4.37;;;3.60;99.90;;;;;;5036735;28;20176;-75
2022/09/30 05:07:19;;;;;;;7.27;4.10;;;3.60;99.90;;;;;;5035338;28;20727;-75
2022/09/30 05:09:45;;;;;;;8.40;4.50;;;3.60;99.90;;;;;;5037021;28;20212;-76
2022/09/30 05:12:11;;;;;;;8.07;5.20;;;3.60;99.90;;;;;;5036598;28;20180;-75
2022/09/30 05:14:36;;;;;;;7.13;4.30;;;3.60;99.90;;;;;;5036327;28;20664;-76
2022/09/30 05:17:03;;;;;;;7.60;4.63;;;3.60;99.90;;;;;;5035277;28;20176;-77
2022/09/30 05:19:29;;;;;;;5.67;4.50;;;3.60;99.90;;;;;;5035351;28;20199;-76
2022/09/30 05:21:54;;;;;;;5.83;4.33;;;3.60;99.90;;;;;;5035125;28;20183;-76
2022/09/30 05:24:20;;;;;;;9.67;4.20;;;3.60;99.90;;;;;;5037049;28;20693;-76
2022/09/30 05:26:45;;;;;;;4.83;4.00;;;3.60;99.90;;;;;;5035222;28;20761;-76
2022/09/30 05:29:11;;;;;;;7.40;4.23;;;3.60;99.90;;;;;;5037318;28;20208;-76
2022/09/30 05:31:37;;;;;;;6.23;3.70;;;3.60;99.90;;;;;;5037093;28;20175;-76
2022/09/30 05:34:03;;;;;;;6.57;4.10;;;3.60;99.90;;;;;;5036596;28;20169;-74
2022/09/30 05:36:29;;;;;;;6.20;3.90;;;3.60;99.90;;;;;;5036471;28;20169;-75
2022/09/30 05:38:54;;;;;;;6.23;4.13;;;3.70;99.90;;;;;;5034705;28;20254;-76
2022/09/30 05:41:20;;;;;;;7.10;4.13;;;3.70;99.90;;;;;;5036515;28;20172;-76
2022/09/30 05:43:47;;;;;;;8.13;4.57;;;3.70;99.90;;;;;;5035667;28;20226;-76
2022/09/30 05:46:14;;;;;;;6.00;4.27;;;3.70;99.90;;;;;;5036850;28;20176;-76
2022/09/30 05:48:40;;;;;;;7.03;3.90;;;3.80;99.90;;;;;;5035372;28;20196;-76
2022/09/30 05:51:06;;;;;;;5.57;4.20;;;3.80;99.90;;;;;;5035926;28;20225;-76
2022/09/30 05:53:35;;;;;;;6.63;3.90;;;3.80;99.90;;;;;;5036030;28;20172;-76
2022/09/30 05:56:01;;;;;;;5.60;4.70;;;3.80;99.90;;;;;;5036814;28;20160;-76
2022/09/30 05:58:26;;;;;;;11.20;4.87;;;5.10;99.90;;;;;;5036770;28;20341;-77
2022/09/30 06:00:52;;;;;;;6.90;4.70;;;3.80;99.90;;;;;;5036577;28;20224;-76
2022/09/30 06:03:18;;;;;;;5.90;4.23;;;3.80;99.90;;;;;;5037118;28;20180;-76
2022/09/30 06:05:44;;;;;;;6.23;4.37;;;3.80;99.90;;;;;;5035541;28;20180;-76
2022/09/30 06:08:10;;;;;;;6.53;4.33;;;3.80;99.90;;;;;;5036167;28;20207;-76
2022/09/30 06:10:40;;;;;;;7.97;4.80;;;3.90;99.90;;;;;;5036212;28;20208;-76
2022/09/30 06:13:07;;;;;;;7.00;4.20;;;3.90;99.90;;;;;;5034867;28;20176;-76
2022/09/30 06:15:33;;;;;;;5.07;4.20;;;3.90;99.90;;;;;;5035090;28;20211;-77
2022/09/30 06:17:58;;;;;;;5.53;4.17;;;4.00;99.90;;;;;;5035357;28;20210;-76
2022/09/30 06:20:24;;;;;;;6.23;4.60;;;4.00;99.90;;;;;;5036025;28;20211;-78
2022/09/30 06:22:49;;;;;;;7.13;4.20;;;4.00;99.90;;;;;;5034682;28;20599;-76
2022/09/30 06:25:16;;;;;;;6.83;3.60;;;4.00;99.90;;;;;;5036210;28;20262;-76
2022/09/30 06:27:46;;;;;;;5.43;3.87;;;4.10;99.90;;;;;;5035019;28;20282;-76
2022/09/30 06:30:12;;;;;;;4.37;3.60;;;4.10;99.90;;;;;;5034150;28;20196;-77
2022/09/30 06:32:37;;;;;;;7.97;4.73;;;4.10;99.90;;;;;;5033511;28;20188;-76
2022/09/30 06:35:03;;;;;;;6.60;4.97;;;4.10;99.90;;;;;;5033711;28;20180;-76
2022/09/30 06:37:29;;;;;;;9.97;4.73;;;4.20;99.90;;;;;;5037248;28;20176;-76
2022/09/30 06:39:54;;;;;;;7.30;4.80;;;4.20;99.90;;;;;;5038655;28;20716;-76
2022/09/30 06:42:23;;;;;;;6.87;4.70;;;4.30;99.90;;;;;;5037488;28;20554;-76
2022/09/30 06:44:50;;;;;;;5.73;4.07;;;4.30;99.90;;;;;;5037714;28;20184;-76
2022/09/30 06:47:16;;;;;;;7.07;5.00;;;4.30;99.90;;;;;;5037586;28;20684;-76
2022/09/30 06:49:42;;;;;;;9.43;5.40;;;4.40;99.90;;;;;;5036929;28;20211;-76
2022/09/30 06:52:13;;;;;;;8.20;5.40;;;4.50;99.90;;;;;;5038385;28;20180;-76
2022/09/30 06:54:42;;;;;;;8.93;5.43;;;4.70;99.90;;;;;;5037289;28;20179;-75
2022/09/30 06:57:08;;;;;;;5.27;4.77;;;4.60;99.90;;;;;;5038801;28;20538;-76
2022/09/30 06:59:34;;;;;;;8.27;5.90;;;4.70;99.90;;;;;;5038314;28;20223;-76
2022/09/30 07:01:59;;;;;;;7.70;5.77;;;4.80;99.90;;;;;;5038187;28;20693;-76
2022/09/30 07:04:25;;;;;;;8.43;5.93;;;4.90;99.90;;;;;;5038407;28;20646;-76
2022/09/30 07:06:51;;;;;;;7.57;6.07;;;4.90;99.90;;;;;;5038304;28;20208;-76
2022/09/30 07:09:16;;;;;;;12.60;6.53;;;5.00;99.90;;;;;;5038209;28;20204;-76
2022/09/30 07:11:42;;;;;;;7.03;5.63;;;5.00;99.90;;;;;;5037480;28;20184;-76
2022/09/30 07:14:09;;;;;;;8.80;5.93;;;5.10;99.90;;;;;;5038963;28;20238;-76
2022/09/30 07:16:35;;;;;;;12.77;7.60;;;5.20;99.90;;;;;;5038120;28;20172;-76
2022/09/30 07:19:02;;;;;;;16.83;8.63;;;5.30;99.90;;;;;;5036756;28;20200;-76
2022/09/30 07:21:29;;;;;;;11.13;7.27;;;5.40;99.90;;;;;;5036804;28;20326;-76
2022/09/30 07:23:55;;;;;;;9.47;7.63;;;5.50;99.90;;;;;;5036465;28;20233;-76
2022/09/30 07:26:22;;;;;;;11.57;8.60;;;5.60;99.90;;;;;;5036727;28;20658;-76
2022/09/30 07:28:49;;;;;;;12.13;8.40;;;5.80;99.90;;;;;;5037081;28;20227;-76
2022/09/30 07:31:17;;;;;;;12.40;8.60;;;5.90;99.90;;;;;;5038112;28;20184;-76
2022/09/30 07:33:44;;;;;;;14.80;9.13;;;6.00;99.90;;;;;;5036514;28;20181;-76
2022/09/30 07:36:10;;;;;;;12.67;9.40;;;6.00;99.90;;;;;;5036437;28;20226;-77
2022/09/30 07:38:39;;;;;;;12.53;9.30;;;6.20;99.90;;;;;;5037736;28;20188;-76
2022/09/30 07:41:13;;;;;;;13.80;9.90;;;6.30;99.90;;;;;;5037803;28;20196;-75
2022/09/30 07:43:41;;;;;;;15.53;9.83;;;6.40;99.90;;;;;;5036614;28;20275;-76
2022/09/30 07:46:10;;;;;;;15.33;10.13;;;6.40;99.90;;;;;;5037833;28;20226;-76
2022/09/30 07:48:46;;;;;;;13.17;9.90;;;6.50;99.90;;;;;;5035477;28;20199;-76
2022/09/30 07:51:20;;;;;;;17.03;10.50;;;6.60;99.90;;;;;;5036755;28;20188;-76
2022/09/30 07:53:52;;;;;;;17.87;11.30;;;6.70;99.90;;;;;;5036370;28;20171;-76
2022/09/30 07:56:19;;;;;;;18.33;12.30;;;6.80;99.90;;;;;;5036692;28;20267;-76
2022/09/30 07:58:45;;;;;;;17.20;11.37;;;6.90;99.90;;;;;;5036362;28;20223;-76
2022/09/30 08:01:11;;;;;;;18.77;11.37;;;7.00;99.90;;;;;;5036359;28;20610;-76
2022/09/30 08:03:40;;;;;;;25.53;13.67;;;7.10;99.90;;;;;;5036757;28;20180;-77
2022/09/30 08:06:08;;;;;;;18.80;13.67;;;7.20;99.90;;;;;;5038082;28;20180;-77
2022/09/30 08:08:34;;;;;;;19.73;13.97;;;7.30;99.90;;;;;;5037915;28;20236;-76
2022/09/30 08:11:00;;;;;;;25.23;14.67;;;7.40;99.90;;;;;;5037647;28;20264;-76
2022/09/30 08:13:26;;;;;;;25.30;14.67;;;7.50;99.90;;;;;;5038111;28;20175;-76
2022/09/30 08:15:51;;;;;;;27.33;15.17;;;7.60;99.90;;;;;;5037266;28;20177;-77
2022/09/30 08:18:17;;;;;;;31.87;16.00;;;7.70;99.90;;;;;;5037414;28;20621;-77
2022/09/30 08:20:42;;;;;;;32.07;15.77;;;7.80;99.90;;;;;;5038679;28;20274;-77
2022/09/30 08:23:08;;;;;;;28.73;16.97;;;7.90;99.90;;;;;;5057506;28;20160;-77
2022/09/30 08:25:34;;;;;;;29.40;16.80;;;8.00;99.90;;;;;;5056148;28;20259;-77
2022/09/30 08:28:00;;;;;;;39.87;18.87;;;8.00;99.90;;;;;;5041255;28;20199;-77
2022/09/30 08:30:25;;;;;;;34.80;18.97;;;8.10;99.90;;;;;;5036803;28;20674;-77
2022/09/30 08:32:51;;;;;;;36.20;19.93;;;8.20;99.90;;;;;;5036869;28;20195;-77
2022/09/30 08:35:17;;;;;;;39.20;21.83;;;8.30;99.90;;;;;;5035519;28;20172;-77
2022/09/30 08:37:42;;;;;;;34.93;21.37;;;8.40;99.90;;;;;;5036416;28;20174;-77
2022/09/30 08:40:26;;;;;;;42.73;20.93;;;8.40;99.90;;;;;;5036967;28;20242;-77
2022/09/30 08:42:51;;;;;;;36.93;21.47;;;8.50;99.90;;;;;;5037204;28;20160;-77
2022/09/30 08:46:01;;;;;;;42.43;22.37;;;8.60;99.90;;;;;;5036398;28;20331;-77
2022/09/30 08:48:42;;;;;;;45.27;21.63;;;8.70;99.90;;;;;;5035422;28;20259;-77
2022/09/30 08:51:30;;;;;;;39.07;22.30;;;8.70;99.90;;;;;;5038475;28;20157;-77
2022/09/30 08:53:58;;;;;;;37.07;21.30;;;8.80;99.90;;;;;;5037920;28;20157;-76
2022/09/30 08:56:30;;;;;;;44.63;23.30;;;8.90;99.90;;;;;;5038291;28;20180;-77
2022/09/30 08:59:03;;;;;;;38.13;22.10;;;9.00;99.90;;;;;;5054199;28;20219;-80
2022/09/30 09:01:36;;;;;;;43.37;23.33;;;9.10;99.90;;;;;;5035544;28;20181;-77
2022/09/30 09:04:04;;;;;;;38.47;22.00;;;9.20;99.90;;;;;;5016838;28;20218;-77
2022/09/30 09:06:35;;;;;;;35.13;21.80;;;9.30;99.90;;;;;;5016811;28;20207;-77
2022/09/30 09:09:41;;;;;;;35.93;21.37;;;9.40;99.90;;;;;;5016711;28;20555;-77
2022/09/30 09:12:26;;;;;;;32.40;19.63;;;9.50;99.90;;;;;;5014689;28;20177;-77
2022/09/30 09:15:13;;;;;;;29.90;20.07;;;9.70;99.90;;;;;;5015170;28;20197;-78
2022/09/30 09:18:03;;;;;;;23.47;16.57;;;9.80;99.90;;;;;;5031079;28;20647;-77
2022/09/30 09:20:37;;;;;;;22.43;15.80;;;9.90;99.90;;;;;;5014411;28;20201;-77
2022/09/30 09:23:07;;;;;;;22.93;15.93;;;9.90;99.90;;;;;;5014210;28;20260;-78
2022/09/30 09:25:33;;;;;;;21.53;15.60;;;10.00;99.90;;;;;;5016081;28;20161;-78
2022/09/30 09:28:02;;;;;;;19.60;13.67;;;10.10;99.90;;;;;;5014097;28;20193;-78
2022/09/30 09:30:48;;;;;;;17.13;14.00;;;10.20;99.90;;;;;;5015446;28;20185;-77
2022/09/30 09:33:25;;;;;;;20.63;13.20;;;10.30;99.90;;;;;;5015716;28;20161;-77
2022/09/30 09:36:12;;;;;;;18.40;13.20;;;10.40;99.90;;;;;;5016091;28;20236;-78
2022/09/30 09:38:52;;;;;;;21.03;15.77;;;10.60;99.90;;;;;;5015414;28;20700;-77
2022/09/30 09:41:24;;;;;;;19.90;14.70;;;10.70;99.90;;;;;;5014916;28;20570;-77
2022/09/30 09:43:59;;;;;;;21.90;14.73;;;10.80;99.90;;;;;;5014562;28;20180;-78
2022/09/30 09:46:31;;;;;;;18.77;13.33;;;10.80;99.90;;;;;;5015778;28;20235;-77
2022/09/30 09:49:27;;;;;;;18.67;13.70;;;11.00;99.90;;;;;;5015989;28;20761;-79
2022/09/30 09:52:11;;;;;;;21.57;14.67;;;11.10;99.90;;;;;;5014437;28;20165;-78
2022/09/30 09:55:08;;;;;;;20.73;13.90;;;11.30;99.90;;;;;;5014583;28;20176;-78
2022/09/30 09:57:34;;;;;;;16.77;12.30;;;11.50;99.90;;;;;;5011191;28;20185;-79
2022/09/30 10:03:11;;;;;;;17.23;11.67;;;11.70;99.90;;;;;;5075226;28;20256;-80
2022/09/30 10:05:40;;;;;;;16.33;11.57;;;11.90;99.90;;;;;;5073920;28;20163;-79
2022/09/30 10:08:22;;;;;;;17.40;11.67;;;12.00;99.90;;;;;;5073513;28;20255;-79
2022/09/30 10:10:53;;;;;;;17.07;11.43;;;12.10;99.90;;;;;;5074581;28;20189;-78
2022/09/30 10:13:29;;;;;;;14.20;10.57;;;12.10;99.90;;;;;;5073966;28;20167;-79
2022/09/30 10:15:57;;;;;;;13.37;10.13;;;12.20;99.90;;;;;;5074445;28;20587;-79
2022/09/30 10:18:40;;;;;;;15.40;11.43;;;12.20;99.90;;;;;;5075529;28;20575;-78
2022/09/30 10:21:20;;;;;;;14.00;10.90;;;12.30;99.90;;;;;;5073704;28;20766;-79
2022/09/30 10:23:45;;;;;;;12.33;9.00;;;12.40;99.90;;;;;;5073362;28;20174;-79
2022/09/30 10:26:14;;;;;;;13.97;9.33;;;12.50;99.90;;;;;;5073233;28;20186;-79
2022/09/30 10:28:51;;;;;;;16.47;10.17;;;12.60;99.90;;;;;;5073583;28;20194;-79
2022/09/30 10:31:24;;;;;;;13.77;9.10;;;12.70;99.90;;;;;;5076086;28;20545;-79
2022/09/30 10:34:17;;;;;;;16.03;9.30;;;12.70;99.90;;;;;;5073411;28;20186;-79
2022/09/30 10:36:44;;;;;;;11.50;9.13;;;12.80;99.90;;;;;;5073362;28;20621;-79
2022/09/30 10:39:37;;;;;;;12.70;9.63;;;12.90;99.90;;;;;;5074761;28;20206;-79
2022/09/30 10:42:18;;;;;;;11.90;9.27;;;12.90;99.90;;;;;;5074749;28;20186;-79
2022/09/30 10:44:47;;;;;;;13.73;9.73;;;12.90;99.90;;;;;;5074664;28;20163;-79
2022/09/30 10:47:17;;;;;;;14.20;9.30;;;13.20;99.90;;;;;;5073098;28;20270;-79
2022/09/30 10:49:49;;;;;;;11.67;9.43;;;13.30;99.90;;;;;;5073700;28;20203;-77
2022/09/30 10:52:25;;;;;;;10.90;8.87;;;13.30;99.90;;;;;;5071469;28;20359;-78
2022/09/30 10:54:52;;;;;;;11.20;8.53;;;13.30;99.90;;;;;;5073185;28;20166;-77
2022/09/30 10:57:24;;;;;;;11.33;8.50;;;13.40;99.90;;;;;;5073021;28;20165;-78
2022/09/30 10:59:54;;;;;;;13.13;8.30;;;13.60;99.90;;;;;;5072842;28;20233;-77
2022/09/30 11:02:31;;;;;;;13.90;8.47;;;13.60;99.90;;;;;;5073496;28;20167;-77
2022/09/30 11:05:41;;;;;;;10.23;7.83;;;13.70;99.90;;;;;;5073056;28;20203;-77
2022/09/30 11:08:22;;;;;;;9.77;7.27;;;13.80;99.90;;;;;;5072825;28;20214;-77
2022/09/30 11:10:59;;;;;;;11.13;6.20;;;14.00;1.00;;;;;;5072807;28;20186;-77
2022/09/30 11:13:36;;;;;;;11.77;7.03;;;14.10;1.00;;;;;;5071717;28;20163;-77
2022/09/30 11:16:07;;;;;;;9.93;6.53;;;14.20;32.10;;;;;;5072702;28;20151;-77
2022/09/30 11:18:54;;;;;;;8.37;6.97;;;14.40;1.00;;;;;;5072612;28;20167;-77
2022/09/30 11:21:41;;;;;;;9.10;5.47;;;14.40;1.00;;;;;;5071174;28;20182;-77
2022/09/30 11:24:20;;;;;;;10.33;6.20;;;14.40;99.90;;;;;;5073800;28;20212;-77
2022/09/30 11:26:55;;;;;;;9.20;6.63;;;14.50;99.90;;;;;;5074589;28;20240;-77
2022/09/30 11:29:45;;;;;;;7.27;5.87;;;14.60;99.90;;;;;;5075342;28;20301;-77
2022/09/30 11:32:23;;;;;;;9.37;5.30;;;14.70;1.00;;;;;;5076097;28;20579;-78
2022/09/30 11:35:07;;;;;;;8.50;6.13;;;14.70;23.80;;;;;;5076324;28;20158;-78
2022/09/30 11:38:05;;;;;;;7.67;6.20;;;14.60;1.00;;;;;;5074766;28;20167;-78
2022/09/30 11:41:01;;;;;;;9.47;6.03;;;14.60;1.00;;;;;;5074602;28;20194;-78
2022/09/30 11:43:51;;;;;;;7.63;5.23;;;14.70;99.90;;;;;;5076030;28;20547;-77
2022/09/30 11:46:36;;;;;;;9.43;5.70;;;14.60;99.90;;;;;;5074195;28;20171;-77
2022/09/30 11:49:26;;;;;;;9.77;6.23;;;14.50;1.00;;;;;;5067140;28;20179;-77
2022/09/30 11:52:20;;;;;;;8.83;5.47;;;14.50;99.90;;;;;;5074429;28;20166;-78
2022/09/30 11:55:02;;;;;;;8.67;5.63;;;14.60;1.00;;;;;;5055389;28;20222;-77
2022/09/30 11:57:51;;;;;;;6.03;4.40;;;14.60;99.90;;;;;;5055603;28;20167;-77
2022/09/30 12:00:18;;;;;;;8.37;5.03;;;14.60;1.00;;;;;;5055294;28;20211;-77
2022/09/30 12:02:54;;;;;;;6.63;5.17;;;14.70;99.90;;;;;;5055279;28;20175;-77
2022/09/30 12:05:25;;;;;;;8.73;4.60;;;14.70;61.20;;;;;;5066179;28;20175;-77
2022/09/30 12:08:08;;;;;;;8.33;4.80;;;14.70;35.20;;;;;;5074061;28;20213;-77
2022/09/30 12:10:38;;;;;;;7.73;4.93;;;14.80;99.90;;;;;;5070212;28;20195;-78
2022/09/30 12:13:15;;;;;;;5.70;4.67;;;14.90;99.90;;;;;;5065228;28;20286;-78
2022/09/30 12:15:43;;;;;;;6.67;4.63;;;15.00;1.00;;;;;;5055565;28;20227;-77
2022/09/30 12:18:18;;;;;;;5.77;3.87;;;15.10;1.00;;;;;;5072377;28;20646;-77
2022/09/30 12:20:52;;;;;;;6.33;4.57;;;15.20;99.90;;;;;;5075462;28;20202;-77
2022/09/30 12:23:30;;;;;;;5.50;4.13;;;15.20;1.00;;;;;;5073946;28;20267;-78
2022/09/30 12:25:58;;;;;;;5.13;3.80;;;15.30;1.00;;;;;;5075536;28;20538;-77
2022/09/30 12:31:55;;;;;;;5.60;4.00;;;15.40;99.90;;;;;;5082532;28;20219;-77
2022/09/30 12:34:38;;;;;;;6.07;3.80;;;15.40;99.90;;;;;;5080418;28;20641;-77
2022/09/30 12:37:36;;;;;;;11.00;4.70;;;15.40;1.00;;;;;;5081628;28;20166;-77
2022/09/30 12:40:01;;;;;;;5.43;4.40;;;15.60;1.00;;;;;;5079088;28;20305;-77
2022/09/30 12:42:47;;;;;;;5.60;3.90;;;15.70;99.90;;;;;;5074020;28;20207;-78
2022/09/30 12:45:44;;;;;;;4.77;3.97;;;15.70;99.90;;;;;;5074071;28;20265;-78
2022/09/30 12:48:14;;;;;;;5.23;3.20;;;15.70;98.90;;;;;;5075110;28;20277;-78
2022/09/30 12:50:52;;;;;;;3.97;3.37;;;15.80;99.90;;;;;;5074389;28;20278;-77
2022/09/30 12:53:24;;;;;;;5.10;3.47;;;15.80;99.90;;;;;;5074262;28;20159;-78
2022/09/30 12:55:51;;;;;;;4.70;3.03;;;15.90;99.90;;;;;;5073116;28;20174;-78
2022/09/30 12:58:22;;;;;;;4.70;3.20;;;15.90;99.90;;;;;;5073238;28;20186;-79
2022/09/30 13:01:22;;;;;;;4.23;2.70;;;16.00;1.00;;;;;;5054244;28;20199;-77
2022/09/30 13:03:58;;;;;;;3.57;2.83;;;16.10;99.90;;;;;;5050174;28;20187;-78
2022/09/30 13:06:24;;;;;;;3.23;2.60;;;16.20;99.90;;;;;;5075662;28;20174;-79
2022/09/30 13:08:56;;;;;;;5.13;3.10;;;16.20;1.00;;;;;;5072549;28;20210;-78
2022/09/30 13:11:43;;;;;;;3.07;2.57;;;16.40;1.00;;;;;;5071653;28;20186;-78
2022/09/30 13:14:35;;;;;;;3.63;2.80;;;16.40;99.90;;;;;;5074084;28;20194;-77
2022/09/30 13:17:06;;;;;;;4.63;3.20;;;16.40;1.00;;;;;;5073892;28;20188;-78
2022/09/30 13:19:43;;;;;;;5.03;3.47;;;16.30;38.90;;;;;;5089072;28;20301;-78
2022/09/30 13:22:28;;;;;;;3.30;2.90;;;16.20;99.90;;;;;;5074067;28;20166;-78
2022/09/30 13:24:59;;;;;;;4.73;2.90;;;16.20;99.90;;;;;;5074176;28;20657;-78
2022/09/30 13:27:39;;;;;;;3.53;2.93;;;16.20;99.90;;;;;;5072502;28;20178;-77